sensor_id;sensor_type;location;lat;lon;timestamp;temperature;humidity
21267;DHT22;10791;53.108;18.326;2022-09-03T00:04:15;10.60;99.90
21267;DHT22;10791;53.108;18.326;2022-09-03T00:09:42;10.60;99.90
21267;DHT22;10791;53.108;18.326;2022-09-03T00:15:21;10.50;99.90
21267;DHT22;10791;53.108;18.326;2022-09-03T00:20:38;10.50;99.90
21267;DHT22;10791;53.108;18.326;2022-09-03T00:26:07;10.40;99.90
21267;DHT22;10791;53.108;18.326;2022-09-03T00:31:42;10.40;99.90
21267;DHT22;10791;53.108;18.326;2022-09-03T00:36:47;10.40;99.90
21267;DHT22;10791;53.108;18.326;2022-09-03T00:41:57;10.30;99.90
21267;DHT22;10791;53.108;18.326;2022-09-03T00:57:43;10.10;99.90
21267;DHT22;10791;53.108;18.326;2022-09-03T01:03:09;10.00;99.90
21267;DHT22;10791;53.108;18.326;2022-09-03T01:08:35;9.90;99.90
21267;DHT22;10791;53.108;18.326;2022-09-03T01:30:04;9.80;99.90
21267;DHT22;10791;53.108;18.326;2022-09-03T02:01:38;9.50;99.90
21267;DHT22;10791;53.108;18.326;2022-09-03T02:06:43;9.40;99.90
21267;DHT22;10791;53.108;18.326;2022-09-03T02:12:02;9.30;99.90
21267;DHT22;10791;53.108;18.326;2022-09-03T02:17:06;9.20;99.90
21267;DHT22;10791;53.108;18.326;2022-09-03T02:22:11;9.20;99.90
21267;DHT22;10791;53.108;18.326;2022-09-03T02:27:15;9.20;99.90
21267;DHT22;10791;53.108;18.326;2022-09-03T02:32:18;9.20;99.90
21267;DHT22;10791;53.108;18.326;2022-09-03T02:37:22;9.20;99.90
21267;DHT22;10791;53.108;18.326;2022-09-03T02:42:25;9.20;99.90
21267;DHT22;10791;53.108;18.326;2022-09-03T02:47:30;9.20;99.90
21267;DHT22;10791;53.108;18.326;2022-09-03T02:52:34;9.20;99.90
21267;DHT22;10791;53.108;18.326;2022-09-03T02:57:38;9.10;99.90
21267;DHT22;10791;53.108;18.326;2022-09-03T03:02:41;9.10;99.90
21267;DHT22;10791;53.108;18.326;2022-09-03T03:07:44;9.20;99.90
21267;DHT22;10791;53.108;18.326;2022-09-03T03:12:47;9.20;99.90
21267;DHT22;10791;53.108;18.326;2022-09-03T03:17:51;9.20;99.90
21267;DHT22;10791;53.108;18.326;2022-09-03T03:22:54;9.20;99.90
21267;DHT22;10791;53.108;18.326;2022-09-03T03:27:57;9.20;99.90
21267;DHT22;10791;53.108;18.326;2022-09-03T03:33:00;9.20;99.90
21267;DHT22;10791;53.108;18.326;2022-09-03T03:38:04;9.20;99.90
21267;DHT22;10791;53.108;18.326;2022-09-03T03:43:07;9.20;99.90
21267;DHT22;10791;53.108;18.326;2022-09-03T03:48:10;9.10;99.90
21267;DHT22;10791;53.108;18.326;2022-09-03T03:53:14;9.00;99.90
21267;DHT22;10791;53.108;18.326;2022-09-03T03:58:17;9.00;99.90
21267;DHT22;10791;53.108;18.326;2022-09-03T04:03:21;8.80;99.90
21267;DHT22;10791;53.108;18.326;2022-09-03T04:08:27;8.80;99.90
21267;DHT22;10791;53.108;18.326;2022-09-03T04:13:32;8.80;99.90
21267;DHT22;10791;53.108;18.326;2022-09-03T04:18:36;8.80;99.90
21267;DHT22;10791;53.108;18.326;2022-09-03T04:23:42;8.80;99.90
21267;DHT22;10791;53.108;18.326;2022-09-03T04:28:45;8.80;99.90
21267;DHT22;10791;53.108;18.326;2022-09-03T04:33:49;8.80;99.90
21267;DHT22;10791;53.108;18.326;2022-09-03T04:38:54;8.90;99.90
21267;DHT22;10791;53.108;18.326;2022-09-03T04:43:58;8.90;99.90
21267;DHT22;10791;53.108;18.326;2022-09-03T04:49:02;9.00;99.90
21267;DHT22;10791;53.108;18.326;2022-09-03T04:54:06;9.10;99.90
21267;DHT22;10791;53.108;18.326;2022-09-03T04:59:10;9.20;99.90
21267;DHT22;10791;53.108;18.326;2022-09-03T05:04:13;9.40;99.90
21267;DHT22;10791;53.108;18.326;2022-09-03T05:09:16;9.40;99.90
21267;DHT22;10791;53.108;18.326;2022-09-03T05:14:20;9.50;99.90
21267;DHT22;10791;53.108;18.326;2022-09-03T05:19:23;9.70;99.90
21267;DHT22;10791;53.108;18.326;2022-09-03T05:24:26;9.90;99.90
21267;DHT22;10791;53.108;18.326;2022-09-03T05:29:29;10.10;99.90
21267;DHT22;10791;53.108;18.326;2022-09-03T05:34:35;10.30;99.90
21267;DHT22;10791;53.108;18.326;2022-09-03T05:39:38;10.60;99.90
21267;DHT22;10791;53.108;18.326;2022-09-03T05:44:45;10.90;99.90
21267;DHT22;10791;53.108;18.326;2022-09-03T05:49:51;11.10;99.90
21267;DHT22;10791;53.108;18.326;2022-09-03T05:54:54;11.40;99.90
21267;DHT22;10791;53.108;18.326;2022-09-03T05:59:57;11.60;99.90
21267;DHT22;10791;53.108;18.326;2022-09-03T06:05:02;11.90;99.90
21267;DHT22;10791;53.108;18.326;2022-09-03T06:10:05;12.10;99.90
21267;DHT22;10791;53.108;18.326;2022-09-03T06:15:09;12.30;99.90
21267;DHT22;10791;53.108;18.326;2022-09-03T06:20:13;12.50;99.90
21267;DHT22;10791;53.108;18.326;2022-09-03T06:25:16;12.70;99.90
21267;DHT22;10791;53.108;18.326;2022-09-03T06:30:20;12.90;99.90
21267;DHT22;10791;53.108;18.326;2022-09-03T06:35:24;13.10;99.90
21267;DHT22;10791;53.108;18.326;2022-09-03T06:40:30;13.40;99.90
21267;DHT22;10791;53.108;18.326;2022-09-03T06:45:35;13.60;99.90
21267;DHT22;10791;53.108;18.326;2022-09-03T06:50:38;13.80;99.90
21267;DHT22;10791;53.108;18.326;2022-09-03T06:55:42;14.00;99.90
21267;DHT22;10791;53.108;18.326;2022-09-03T07:00:47;14.20;99.90
21267;DHT22;10791;53.108;18.326;2022-09-03T07:05:52;14.40;99.90
21267;DHT22;10791;53.108;18.326;2022-09-03T07:10:55;14.70;99.90
21267;DHT22;10791;53.108;18.326;2022-09-03T07:16:06;15.00;99.90
21267;DHT22;10791;53.108;18.326;2022-09-03T07:21:24;15.20;99.90
21267;DHT22;10791;53.108;18.326;2022-09-03T07:26:29;15.40;99.90
21267;DHT22;10791;53.108;18.326;2022-09-03T07:31:39;15.60;99.90
21267;DHT22;10791;53.108;18.326;2022-09-03T07:36:46;15.90;99.90
21267;DHT22;10791;53.108;18.326;2022-09-03T07:41:54;16.10;99.90
21267;DHT22;10791;53.108;18.326;2022-09-03T07:47:00;16.30;99.90
21267;DHT22;10791;53.108;18.326;2022-09-03T07:52:03;16.50;99.90
21267;DHT22;10791;53.108;18.326;2022-09-03T07:57:13;16.80;99.90
21267;DHT22;10791;53.108;18.326;2022-09-03T08:02:16;17.00;99.90
21267;DHT22;10791;53.108;18.326;2022-09-03T08:07:20;17.20;99.90
21267;DHT22;10791;53.108;18.326;2022-09-03T08:12:24;17.50;99.90
21267;DHT22;10791;53.108;18.326;2022-09-03T08:17:28;17.70;99.90
21267;DHT22;10791;53.108;18.326;2022-09-03T08:22:32;17.90;99.90
21267;DHT22;10791;53.108;18.326;2022-09-03T08:27:36;18.20;99.90
21267;DHT22;10791;53.108;18.326;2022-09-03T08:32:39;18.30;99.90
21267;DHT22;10791;53.108;18.326;2022-09-03T08:37:43;18.50;99.90
21267;DHT22;10791;53.108;18.326;2022-09-03T08:43:28;18.60;99.90
21267;DHT22;10791;53.108;18.326;2022-09-03T08:48:27;18.80;99.90
21267;DHT22;10791;53.108;18.326;2022-09-03T08:53:47;18.80;99.90
21267;DHT22;10791;53.108;18.326;2022-09-03T08:58:51;18.90;99.90
21267;DHT22;10791;53.108;18.326;2022-09-03T09:20:30;19.10;97.50
21267;DHT22;10791;53.108;18.326;2022-09-03T09:25:21;19.20;98.50
21267;DHT22;10791;53.108;18.326;2022-09-03T09:30:28;19.50;96.80
21267;DHT22;10791;53.108;18.326;2022-09-03T09:35:32;19.60;93.10
21267;DHT22;10791;53.108;18.326;2022-09-03T09:40:40;19.50;92.30
21267;DHT22;10791;53.108;18.326;2022-09-03T09:45:48;19.50;92.00
21267;DHT22;10791;53.108;18.326;2022-09-03T09:51:12;19.60;91.20
21267;DHT22;10791;53.108;18.326;2022-09-03T09:56:23;19.90;92.60
21267;DHT22;10791;53.108;18.326;2022-09-03T10:01:30;19.90;86.40
21267;DHT22;10791;53.108;18.326;2022-09-03T10:06:34;19.80;86.80
21267;DHT22;10791;53.108;18.326;2022-09-03T10:17:24;19.70;87.10
21267;DHT22;10791;53.108;18.326;2022-09-03T10:22:42;19.90;84.50
21267;DHT22;10791;53.108;18.326;2022-09-03T10:27:59;19.90;84.50
21267;DHT22;10791;53.108;18.326;2022-09-03T10:33:13;20.00;81.40
21267;DHT22;10791;53.108;18.326;2022-09-03T10:38:28;20.10;82.80
21267;DHT22;10791;53.108;18.326;2022-09-03T11:00:09;20.40;77.20
21267;DHT22;10791;53.108;18.326;2022-09-03T11:05:27;20.60;76.20
21267;DHT22;10791;53.108;18.326;2022-09-03T11:10:40;20.50;75.30
21267;DHT22;10791;53.108;18.326;2022-09-03T11:15:57;20.50;77.10
21267;DHT22;10791;53.108;18.326;2022-09-03T11:21:08;20.50;76.20
21267;DHT22;10791;53.108;18.326;2022-09-03T11:26:17;20.60;77.10
21267;DHT22;10791;53.108;18.326;2022-09-03T11:31:42;20.80;75.70
21267;DHT22;10791;53.108;18.326;2022-09-03T11:36:49;20.80;75.30
21267;DHT22;10791;53.108;18.326;2022-09-03T11:42:00;20.80;73.70
21267;DHT22;10791;53.108;18.326;2022-09-03T11:47:16;20.80;75.70
21267;DHT22;10791;53.108;18.326;2022-09-03T11:52:30;20.80;73.60
21267;DHT22;10791;53.108;18.326;2022-09-03T11:57:40;21.00;73.20
21267;DHT22;10791;53.108;18.326;2022-09-03T12:02:56;20.50;73.60
21267;DHT22;10791;53.108;18.326;2022-09-03T12:19:27;20.70;75.00
21267;DHT22;10791;53.108;18.326;2022-09-03T12:24:32;20.30;73.10
21267;DHT22;10791;53.108;18.326;2022-09-03T12:29:50;20.40;72.00
21267;DHT22;10791;53.108;18.326;2022-09-03T12:35:16;20.40;73.40
21267;DHT22;10791;53.108;18.326;2022-09-03T12:40:42;20.30;74.10
21267;DHT22;10791;53.108;18.326;2022-09-03T12:46:13;20.40;73.80
21267;DHT22;10791;53.108;18.326;2022-09-03T12:51:18;20.30;71.50
21267;DHT22;10791;53.108;18.326;2022-09-03T12:56:52;20.50;71.70
21267;DHT22;10791;53.108;18.326;2022-09-03T13:02:02;20.80;73.30
21267;DHT22;10791;53.108;18.326;2022-09-03T13:07:31;21.10;73.10
21267;DHT22;10791;53.108;18.326;2022-09-03T13:12:45;21.30;69.70
21267;DHT22;10791;53.108;18.326;2022-09-03T13:18:20;21.30;69.50
21267;DHT22;10791;53.108;18.326;2022-09-03T13:34:36;21.20;66.20
21267;DHT22;10791;53.108;18.326;2022-09-03T13:39:51;21.30;73.50
21267;DHT22;10791;53.108;18.326;2022-09-03T14:02:06;20.10;69.10
21267;DHT22;10791;53.108;18.326;2022-09-03T14:07:20;19.90;70.00
21267;DHT22;10791;53.108;18.326;2022-09-03T14:39:55;20.90;65.90
21267;DHT22;10791;53.108;18.326;2022-09-03T14:45:17;20.90;66.10
21267;DHT22;10791;53.108;18.326;2022-09-03T14:50:46;20.80;66.80
21267;DHT22;10791;53.108;18.326;2022-09-03T15:01:45;20.70;64.50
21267;DHT22;10791;53.108;18.326;2022-09-03T15:12:38;20.60;67.40
21267;DHT22;10791;53.108;18.326;2022-09-03T15:17:54;20.50;65.70
21267;DHT22;10791;53.108;18.326;2022-09-03T15:23:42;20.40;65.00
21267;DHT22;10791;53.108;18.326;2022-09-03T15:39:36;20.20;66.90
21267;DHT22;10791;53.108;18.326;2022-09-03T15:44:51;20.10;66.30
21267;DHT22;10791;53.108;18.326;2022-09-03T15:50:02;20.00;66.90
21267;DHT22;10791;53.108;18.326;2022-09-03T16:00:55;19.80;68.60
21267;DHT22;10791;53.108;18.326;2022-09-03T16:06:04;19.70;67.70
21267;DHT22;10791;53.108;18.326;2022-09-03T16:16:58;19.30;69.20
21267;DHT22;10791;53.108;18.326;2022-09-03T16:22:28;19.20;70.10
21267;DHT22;10791;53.108;18.326;2022-09-03T16:38:26;18.70;70.40
21267;DHT22;10791;53.108;18.326;2022-09-03T16:43:38;18.60;71.30
21267;DHT22;10791;53.108;18.326;2022-09-03T17:00:04;18.10;73.50
21267;DHT22;10791;53.108;18.326;2022-09-03T17:05:36;17.80;74.20
21267;DHT22;10791;53.108;18.326;2022-09-03T17:21:56;17.00;77.50
21267;DHT22;10791;53.108;18.326;2022-09-03T17:33:21;16.60;80.30
21267;DHT22;10791;53.108;18.326;2022-09-03T17:50:04;15.90;84.40
21267;DHT22;10791;53.108;18.326;2022-09-03T17:55:30;15.60;85.20
21267;DHT22;10791;53.108;18.326;2022-09-03T18:05:57;15.30;86.80
21267;DHT22;10791;53.108;18.326;2022-09-03T18:11:20;15.10;87.90
21267;DHT22;10791;53.108;18.326;2022-09-03T18:16:31;15.00;88.60
21267;DHT22;10791;53.108;18.326;2022-09-03T18:21:37;14.80;89.00
21267;DHT22;10791;53.108;18.326;2022-09-03T18:27:03;14.70;90.00
21267;DHT22;10791;53.108;18.326;2022-09-03T18:32:29;14.60;90.20
21267;DHT22;10791;53.108;18.326;2022-09-03T18:37:51;14.50;90.90
21267;DHT22;10791;53.108;18.326;2022-09-03T18:43:39;14.40;91.40
21267;DHT22;10791;53.108;18.326;2022-09-03T18:49:14;14.30;92.00
21267;DHT22;10791;53.108;18.326;2022-09-03T18:55:19;14.30;92.60
21267;DHT22;10791;53.108;18.326;2022-09-03T19:01:17;14.20;93.50
21267;DHT22;10791;53.108;18.326;2022-09-03T19:18:08;13.80;97.00
21267;DHT22;10791;53.108;18.326;2022-09-03T19:23:32;13.70;98.50
21267;DHT22;10791;53.108;18.326;2022-09-03T19:29:02;13.60;99.90
21267;DHT22;10791;53.108;18.326;2022-09-03T19:40:27;13.40;99.90
21267;DHT22;10791;53.108;18.326;2022-09-03T19:51:20;13.30;99.90
21267;DHT22;10791;53.108;18.326;2022-09-03T19:56:45;13.20;99.90
21267;DHT22;10791;53.108;18.326;2022-09-03T20:02:08;13.10;99.90
21267;DHT22;10791;53.108;18.326;2022-09-03T20:07:31;13.00;99.90
21267;DHT22;10791;53.108;18.326;2022-09-03T20:18:20;12.90;99.90
21267;DHT22;10791;53.108;18.326;2022-09-03T20:23:35;12.90;99.90
21267;DHT22;10791;53.108;18.326;2022-09-03T20:28:55;12.70;99.90
21267;DHT22;10791;53.108;18.326;2022-09-03T20:39:29;12.70;99.90
21267;DHT22;10791;53.108;18.326;2022-09-03T20:45:13;12.60;99.90
21267;DHT22;10791;53.108;18.326;2022-09-03T20:55:39;12.50;99.90
21267;DHT22;10791;53.108;18.326;2022-09-03T21:00:53;12.50;99.90
21267;DHT22;10791;53.108;18.326;2022-09-03T21:06:32;12.50;99.90
21267;DHT22;10791;53.108;18.326;2022-09-03T21:24:29;12.30;99.90
21267;DHT22;10791;53.108;18.326;2022-09-03T21:30:08;12.20;99.90
21267;DHT22;10791;53.108;18.326;2022-09-03T21:35:28;12.20;99.90
21267;DHT22;10791;53.108;18.326;2022-09-03T21:40:36;12.20;99.90
21267;DHT22;10791;53.108;18.326;2022-09-03T21:45:49;12.00;99.90
21267;DHT22;10791;53.108;18.326;2022-09-03T21:50:59;12.00;99.90
21267;DHT22;10791;53.108;18.326;2022-09-03T22:02:05;11.90;99.90
21267;DHT22;10791;53.108;18.326;2022-09-03T22:18:27;11.70;99.90
21267;DHT22;10791;53.108;18.326;2022-09-03T22:24:13;11.60;99.90
21267;DHT22;10791;53.108;18.326;2022-09-03T22:35:04;11.50;99.90
21267;DHT22;10791;53.108;18.326;2022-09-03T22:40:23;11.40;99.90
21267;DHT22;10791;53.108;18.326;2022-09-03T22:50:51;11.20;99.90
21267;DHT22;10791;53.108;18.326;2022-09-03T22:56:06;11.20;99.90
21267;DHT22;10791;53.108;18.326;2022-09-03T23:01:18;11.00;99.90
21267;DHT22;10791;53.108;18.326;2022-09-03T23:06:33;11.10;99.90
21267;DHT22;10791;53.108;18.326;2022-09-03T23:11:41;11.10;99.90
21267;DHT22;10791;53.108;18.326;2022-09-03T23:16:51;11.00;99.90
21267;DHT22;10791;53.108;18.326;2022-09-03T23:22:04;10.90;99.90
21267;DHT22;10791;53.108;18.326;2022-09-03T23:27:15;10.80;99.90
21267;DHT22;10791;53.108;18.326;2022-09-03T23:32:20;10.80;99.90
21267;DHT22;10791;53.108;18.326;2022-09-03T23:37:30;10.70;99.90
21267;DHT22;10791;53.108;18.326;2022-09-03T23:42:57;10.60;99.90
21267;DHT22;10791;53.108;18.326;2022-09-03T23:59:02;10.50;99.90
